Time;durP1;ratioP1;P1;durP2;ratioP2;P2;SDS_P1;SDS_P2;PMS_P1;PMS_P2;Temp;Humidity;BMP_temperature;BMP_pressure;BME280_temperature;BME280_humidity;BME280_pressure;Samples;Min_cycle;Max_cycle;Signal;HPM_P1;HPM_P2
2021/09/10 00:00:45;;;;;;;20.07;14.60;;;30.80;46.60;;;;;;5104812;28;20535;-75
2021/09/10 00:03:13;;;;;;;21.63;15.77;;;30.80;46.70;;;;;;5105084;28;20444;-75
2021/09/10 00:05:41;;;;;;;20.90;16.00;;;30.80;46.80;;;;;;5105186;28;20465;-75
2021/09/10 00:08:09;;;;;;;19.27;14.50;;;30.80;46.80;;;;;;5105475;28;20544;-75
2021/09/10 00:10:37;;;;;;;21.47;14.47;;;30.80;46.90;;;;;;5105129;28;20427;-76
2021/09/10 00:13:06;;;;;;;15.83;13.50;;;30.80;46.80;;;;;;5105589;28;20508;-75
2021/09/10 00:15:34;;;;;;;18.93;13.93;;;30.80;46.80;;;;;;5105241;28;20436;-76
2021/09/10 00:18:03;;;;;;;17.03;15.23;;;30.80;46.70;;;;;;5104976;28;20646;-75
2021/09/10 00:20:31;;;;;;;19.00;16.17;;;30.70;46.70;;;;;;5104220;28;20436;-78
2021/09/10 00:22:59;;;;;;;23.63;16.00;;;30.70;46.90;;;;;;5104869;28;20452;-77
2021/09/10 00:25:27;;;;;;;20.27;16.13;;;30.70;47.00;;;;;;5104692;28;20519;-76
2021/09/10 00:27:55;;;;;;;20.20;15.90;;;30.70;46.90;;;;;;5105192;28;20464;-76
2021/09/10 00:30:24;;;;;;;18.27;15.53;;;30.70;47.10;;;;;;5102907;28;20432;-77
2021/09/10 00:32:52;;;;;;;21.20;16.90;;;30.70;47.10;;;;;;5101667;28;20403;-77
2021/09/10 00:35:20;;;;;;;18.30;14.90;;;30.60;47.10;;;;;;5103020;28;20468;-76
2021/09/10 00:37:48;;;;;;;19.07;14.80;;;30.70;47.60;;;;;;5103955;28;20458;-76
2021/09/10 00:40:15;;;;;;;15.20;13.37;;;30.60;47.00;;;;;;5103828;28;20468;-75
2021/09/10 00:42:43;;;;;;;15.40;12.07;;;30.60;46.90;;;;;;5104353;28;20424;-75
2021/09/10 00:45:12;;;;;;;16.13;12.40;;;30.60;47.00;;;;;;5106241;28;20497;-75
2021/09/10 00:47:42;;;;;;;16.43;12.77;;;30.50;47.00;;;;;;5108501;28;20519;-75
2021/09/10 00:50:11;;;;;;;13.50;10.77;;;30.50;47.10;;;;;;5108467;28;20489;-75
2021/09/10 00:52:39;;;;;;;12.47;11.27;;;30.50;47.20;;;;;;5108437;28;20482;-76
2021/09/10 00:55:07;;;;;;;12.63;11.43;;;30.50;47.20;;;;;;5108050;28;20478;-76
2021/09/10 00:57:35;;;;;;;11.80;10.67;;;30.50;47.20;;;;;;5107979;28;20467;-76
2021/09/10 01:00:04;;;;;;;12.87;11.67;;;30.50;47.10;;;;;;5103087;28;20459;-76
2021/09/10 01:02:32;;;;;;;15.33;10.60;;;30.50;47.10;;;;;;5108619;28;20468;-76
2021/09/10 01:05:01;;;;;;;12.30;11.10;;;30.60;47.20;;;;;;5108685;28;20440;-76
2021/09/10 01:07:29;;;;;;;12.50;11.27;;;30.50;47.10;;;;;;5108332;28;20455;-75
2021/09/10 01:09:57;;;;;;;11.97;10.77;;;30.50;47.10;;;;;;5108402;28;20443;-76
2021/09/10 01:12:25;;;;;;;13.10;10.80;;;30.60;47.20;;;;;;5108089;28;20502;-76
2021/09/10 01:14:53;;;;;;;17.63;11.03;;;30.50;47.20;;;;;;5108100;28;20424;-76
2021/09/10 01:17:21;;;;;;;14.20;10.90;;;30.50;47.20;;;;;;5108082;28;20523;-76
2021/09/10 01:19:49;;;;;;;11.93;10.73;;;30.50;47.20;;;;;;5107784;28;20473;-76
2021/09/10 01:22:19;;;;;;;12.50;10.70;;;30.50;47.20;;;;;;5107975;28;20474;-75
2021/09/10 01:25:12;;;;;;;12.53;11.33;;;30.60;47.30;;;;;;5107302;28;20451;-75
2021/09/10 01:31:27;;;;;;;12.40;11.13;;;30.50;47.40;;;;;;5103549;28;20438;-75
2021/09/10 01:33:55;;;;;;;11.80;10.60;;;30.50;47.50;;;;;;5107713;28;20436;-75
2021/09/10 01:36:23;;;;;;;11.30;10.30;;;30.50;47.50;;;;;;5108016;28;20428;-75
2021/09/10 01:38:51;;;;;;;10.70;9.60;;;30.40;47.40;;;;;;5107442;28;20436;-75
2021/09/10 01:41:20;;;;;;;18.13;11.13;;;30.50;47.40;;;;;;5107369;28;20452;-75
2021/09/10 01:43:48;;;;;;;11.60;10.13;;;30.50;47.50;;;;;;5107528;28;20439;-76
2021/09/10 01:46:16;;;;;;;11.27;10.23;;;30.50;47.50;;;;;;5107191;28;20500;-76
2021/09/10 01:48:44;;;;;;;12.80;10.70;;;30.50;47.50;;;;;;5107312;28;20472;-76
2021/09/10 01:51:12;;;;;;;13.77;10.30;;;30.50;47.50;;;;;;5107512;28;20513;-76
2021/09/10 01:53:41;;;;;;;11.60;10.50;;;30.40;48.20;;;;;;5107623;28;20552;-76
2021/09/10 01:56:08;;;;;;;10.67;9.60;;;30.50;47.60;;;;;;5106129;28;20513;-76
2021/09/10 01:58:38;;;;;;;11.10;10.00;;;30.40;47.60;;;;;;5107394;28;20427;-76
2021/09/10 02:01:06;;;;;;;11.13;10.13;;;30.40;47.60;;;;;;5107002;28;20496;-76
2021/09/10 02:03:34;;;;;;;10.83;9.80;;;30.40;47.60;;;;;;5107156;28;20444;-76
2021/09/10 02:06:03;;;;;;;10.17;9.10;;;30.40;47.70;;;;;;5107485;28;20533;-76
2021/09/10 02:08:31;;;;;;;10.43;9.37;;;30.40;47.70;;;;;;5101764;28;20562;-76
2021/09/10 02:10:59;;;;;;;12.03;10.60;;;30.40;47.70;;;;;;5104615;28;20458;-75
2021/09/10 02:13:27;;;;;;;10.03;9.03;;;30.40;47.80;;;;;;5106662;28;20468;-75
2021/09/10 02:15:57;;;;;;;11.27;10.10;;;30.40;47.80;;;;;;5096450;28;20441;-75
2021/09/10 02:18:26;;;;;;;11.93;10.13;;;30.40;47.80;;;;;;5100598;28;20451;-74
2021/09/10 02:20:54;;;;;;;10.50;9.50;;;30.30;47.80;;;;;;5101380;28;20403;-76
2021/09/10 02:23:22;;;;;;;10.47;9.40;;;30.30;47.80;;;;;;5110555;28;20432;-74
2021/09/10 02:25:50;;;;;;;10.17;9.17;;;30.30;48.50;;;;;;5108686;28;20484;-74
2021/09/10 02:28:17;;;;;;;10.83;9.83;;;30.30;47.90;;;;;;5106485;28;20455;-74
2021/09/10 02:30:45;;;;;;;11.30;9.10;;;30.30;47.90;;;;;;5106771;28;20565;-74
2021/09/10 02:33:15;;;;;;;11.20;9.70;;;30.30;48.00;;;;;;5106494;28;20435;-74
2021/09/10 02:35:43;;;;;;;9.80;8.50;;;30.30;48.00;;;;;;5106821;28;20473;-74
2021/09/10 02:38:11;;;;;;;10.33;9.33;;;30.30;48.00;;;;;;5106802;28;20520;-74
2021/09/10 02:40:39;;;;;;;10.63;9.63;;;30.30;48.00;;;;;;5106738;28;20420;-74
2021/09/10 02:43:07;;;;;;;9.83;8.87;;;30.20;48.00;;;;;;5106366;28;20467;-74
2021/09/10 02:45:35;;;;;;;9.80;8.90;;;30.20;48.10;;;;;;5106334;28;20432;-74
2021/09/10 02:48:03;;;;;;;11.10;9.37;;;30.20;48.00;;;;;;5106033;28;20471;-74
2021/09/10 02:50:33;;;;;;;9.80;8.90;;;30.20;48.00;;;;;;5105770;28;20503;-74
2021/09/10 02:53:01;;;;;;;9.40;8.50;;;30.20;48.00;;;;;;5106302;28;20531;-74
2021/09/10 02:55:28;;;;;;;10.17;9.27;;;30.20;48.00;;;;;;5106651;28;20428;-74
2021/09/10 02:57:57;;;;;;;9.83;8.93;;;30.20;48.10;;;;;;5105893;28;20468;-74
2021/09/10 03:00:25;;;;;;;9.67;8.73;;;30.20;48.10;;;;;;5105852;28;20507;-74
2021/09/10 03:02:52;;;;;;;9.47;8.63;;;30.20;48.10;;;;;;5105814;28;20524;-74
2021/09/10 03:05:21;;;;;;;10.23;9.23;;;30.20;48.10;;;;;;5105928;28;20440;-74
2021/09/10 03:07:51;;;;;;;8.93;8.10;;;30.20;48.30;;;;;;5105337;28;20459;-74
2021/09/10 03:10:19;;;;;;;10.27;9.27;;;30.10;48.20;;;;;;5105538;28;20467;-74
2021/09/10 03:12:47;;;;;;;9.47;8.57;;;30.10;48.30;;;;;;5105777;28;20450;-75
2021/09/10 03:15:15;;;;;;;9.80;8.90;;;30.10;48.30;;;;;;5105904;28;20467;-74
2021/09/10 03:17:43;;;;;;;9.20;8.40;;;30.10;48.30;;;;;;5105482;28;20418;-74
2021/09/10 03:20:13;;;;;;;9.70;8.83;;;30.00;48.30;;;;;;5105672;28;20475;-75
2021/09/10 03:22:41;;;;;;;10.30;9.30;;;30.00;48.20;;;;;;5105357;28;20493;-75
2021/09/10 03:25:11;;;;;;;10.07;8.70;;;30.00;48.40;;;;;;5105173;28;20531;-75
2021/09/10 03:27:39;;;;;;;9.13;8.30;;;30.00;48.40;;;;;;5105709;28;20483;-74
2021/09/10 03:30:08;;;;;;;9.20;8.40;;;30.00;48.40;;;;;;5104426;28;20568;-75
2021/09/10 03:32:36;;;;;;;9.27;8.47;;;30.00;49.10;;;;;;5104667;28;20407;-75
2021/09/10 03:35:04;;;;;;;8.43;7.73;;;30.00;48.50;;;;;;5105540;28;20475;-75
2021/09/10 03:37:33;;;;;;;9.27;8.37;;;30.00;48.50;;;;;;5105630;28;20464;-74
2021/09/10 03:40:01;;;;;;;9.13;8.30;;;30.00;48.50;;;;;;5105170;28;20407;-75
2021/09/10 03:42:32;;;;;;;9.80;8.90;;;30.00;48.40;;;;;;5105821;28;20497;-75
2021/09/10 03:44:59;;;;;;;8.87;8.17;;;29.90;48.50;;;;;;5105187;28;20450;-75
2021/09/10 03:47:27;;;;;;;9.70;8.80;;;30.00;48.60;;;;;;5105020;28;20456;-75
2021/09/10 03:49:58;;;;;;;8.93;8.13;;;30.00;48.60;;;;;;5104900;28;20475;-75
2021/09/10 03:52:26;;;;;;;8.63;7.97;;;30.00;48.50;;;;;;5104702;28;20420;-76
2021/09/10 03:54:54;;;;;;;9.13;7.97;;;30.00;48.60;;;;;;5105351;28;20486;-76
2021/09/10 03:57:22;;;;;;;8.70;7.90;;;30.00;48.60;;;;;;5105001;28;20535;-76
2021/09/10 03:59:51;;;;;;;8.73;7.93;;;29.90;48.50;;;;;;5104961;28;20424;-74
2021/09/10 04:02:19;;;;;;;8.60;7.83;;;29.90;48.70;;;;;;5100284;28;20452;-77
2021/09/10 04:04:47;;;;;;;10.90;7.67;;;29.90;48.60;;;;;;5099880;28;20440;-76
2021/09/10 04:07:16;;;;;;;8.63;7.87;;;29.90;48.60;;;;;;5103573;28;20420;-76
2021/09/10 04:09:43;;;;;;;9.00;8.20;;;29.90;48.60;;;;;;5104882;28;20466;-76
2021/09/10 04:12:11;;;;;;;7.97;7.27;;;29.90;48.60;;;;;;5104200;28;20509;-76
2021/09/10 04:14:39;;;;;;;7.90;7.20;;;29.90;48.70;;;;;;5104722;28;20406;-76
2021/09/10 04:17:09;;;;;;;7.97;7.27;;;29.90;48.60;;;;;;5104515;28;20414;-76
2021/09/10 04:19:37;;;;;;;7.80;7.20;;;29.90;48.70;;;;;;5105957;28;20410;-76
2021/09/10 04:22:05;;;;;;;8.30;7.60;;;29.90;48.70;;;;;;5109144;28;20436;-76
2021/09/10 04:24:33;;;;;;;8.20;7.50;;;29.90;48.70;;;;;;5108921;28;20526;-76
2021/09/10 04:27:01;;;;;;;8.20;7.50;;;29.90;48.60;;;;;;5108345;28;20407;-76
2021/09/10 04:29:29;;;;;;;7.90;7.10;;;29.90;48.80;;;;;;5108525;28;20428;-76
2021/09/10 04:31:57;;;;;;;8.13;7.50;;;29.90;48.70;;;;;;5108322;28;20424;-76
2021/09/10 04:34:26;;;;;;;7.10;6.60;;;29.90;48.70;;;;;;5108823;28;20447;-76
2021/09/10 04:36:54;;;;;;;7.90;7.30;;;29.90;48.70;;;;;;5108547;28;20452;-76
2021/09/10 04:39:22;;;;;;;8.00;7.40;;;29.80;48.60;;;;;;5108824;28;20440;-76
2021/09/10 04:41:50;;;;;;;7.67;7.07;;;29.90;48.80;;;;;;5108687;28;20523;-76
2021/09/10 04:44:18;;;;;;;7.23;6.73;;;29.90;48.80;;;;;;5108550;28;20478;-76
2021/09/10 04:46:46;;;;;;;7.83;7.23;;;29.80;48.70;;;;;;5108537;28;20499;-76
2021/09/10 04:49:14;;;;;;;6.60;6.10;;;29.80;48.70;;;;;;5108558;28;20456;-76
2021/09/10 04:51:44;;;;;;;7.80;7.20;;;29.80;48.60;;;;;;5108232;28;20469;-76
2021/09/10 04:54:15;;;;;;;7.60;7.00;;;29.80;48.80;;;;;;5107879;28;20432;-76
2021/09/10 04:56:43;;;;;;;7.27;6.77;;;29.80;48.70;;;;;;5108693;28;20515;-76
2021/09/10 04:59:11;;;;;;;7.80;7.10;;;29.80;48.70;;;;;;5108087;28;20432;-76
2021/09/10 05:01:39;;;;;;;7.03;6.43;;;29.80;48.70;;;;;;5108225;28;20553;-76
2021/09/10 05:04:07;;;;;;;7.93;7.20;;;29.80;48.80;;;;;;5108192;28;20500;-76
2021/09/10 05:06:35;;;;;;;7.20;6.60;;;29.80;48.80;;;;;;5108292;28;20497;-76
2021/09/10 05:09:05;;;;;;;7.90;7.30;;;29.80;48.70;;;;;;5107985;28;20466;-76
2021/09/10 05:11:33;;;;;;;7.27;6.67;;;29.80;48.60;;;;;;5107559;28;20467;-76
2021/09/10 05:14:01;;;;;;;7.43;6.83;;;29.80;48.70;;;;;;5107736;28;20434;-76
2021/09/10 05:16:29;;;;;;;6.87;6.17;;;29.80;48.80;;;;;;5108253;28;20435;-73
2021/09/10 05:18:57;;;;;;;7.47;6.70;;;29.80;48.80;;;;;;5107821;28;20447;-75
2021/09/10 05:21:25;;;;;;;7.27;6.67;;;29.80;48.80;;;;;;5108209;28;20455;-76
2021/09/10 05:23:53;;;;;;;7.30;6.70;;;29.80;48.90;;;;;;5107519;28;20444;-76
2021/09/10 05:26:26;;;;;;;7.03;6.33;;;29.80;48.90;;;;;;5107823;28;20436;-76
2021/09/10 05:28:54;;;;;;;7.13;6.60;;;29.80;48.90;;;;;;5107768;28;20406;-76
2021/09/10 05:31:22;;;;;;;7.20;6.60;;;29.80;48.90;;;;;;5106788;28;20531;-76
2021/09/10 05:33:50;;;;;;;7.40;6.80;;;29.80;48.90;;;;;;5107656;28;20471;-76
2021/09/10 05:36:18;;;;;;;6.90;6.30;;;29.80;48.90;;;;;;5107746;28;20443;-76
2021/09/10 05:38:46;;;;;;;6.70;6.20;;;29.80;48.80;;;;;;5107807;28;20451;-76
2021/09/10 05:41:14;;;;;;;6.57;6.07;;;29.80;48.90;;;;;;5107466;28;20403;-74
2021/09/10 05:43:44;;;;;;;7.00;6.43;;;29.70;48.80;;;;;;5107161;28;20426;-74
2021/09/10 05:46:12;;;;;;;7.00;6.30;;;29.70;48.90;;;;;;5107820;28;20447;-74
2021/09/10 05:48:40;;;;;;;6.00;5.60;;;29.70;49.00;;;;;;5107612;28;20427;-73
2021/09/10 05:51:11;;;;;;;6.43;5.93;;;29.70;48.90;;;;;;5107058;28;20487;-73
2021/09/10 05:53:39;;;;;;;6.93;6.33;;;29.70;49.00;;;;;;5107275;28;20428;-75
2021/09/10 05:56:07;;;;;;;6.70;6.20;;;29.70;49.00;;;;;;5107115;28;20508;-76
2021/09/10 05:58:35;;;;;;;6.80;6.30;;;29.70;49.00;;;;;;5107616;28;20463;-76
2021/09/10 06:01:05;;;;;;;6.70;6.20;;;29.70;49.00;;;;;;5106854;28;20411;-76
2021/09/10 06:03:33;;;;;;;6.27;5.77;;;29.70;49.00;;;;;;5106904;28;20469;-76
2021/09/10 06:06:01;;;;;;;6.27;5.77;;;29.70;49.10;;;;;;5106951;28;20481;-76
2021/09/10 06:08:29;;;;;;;6.03;5.57;;;29.60;49.10;;;;;;5107157;28;20439;-76
2021/09/10 06:10:57;;;;;;;6.03;5.63;;;29.60;49.10;;;;;;5106862;28;20453;-75
2021/09/10 06:13:25;;;;;;;6.57;5.97;;;29.60;49.10;;;;;;5107321;28;20478;-75
2021/09/10 06:15:53;;;;;;;7.47;6.77;;;29.60;49.20;;;;;;5107053;28;20514;-76
2021/09/10 06:18:23;;;;;;;6.67;6.10;;;29.60;49.20;;;;;;5106968;28;20428;-76
2021/09/10 06:20:55;;;;;;;6.80;6.30;;;29.60;49.30;;;;;;5106250;28;20444;-76
2021/09/10 06:23:23;;;;;;;6.73;6.23;;;29.60;49.30;;;;;;5106848;28;20410;-75
2021/09/10 06:25:51;;;;;;;6.83;6.00;;;29.60;49.40;;;;;;5106487;28;20512;-76
2021/09/10 06:28:19;;;;;;;6.27;5.80;;;29.50;49.40;;;;;;5106642;28;20444;-76
2021/09/10 06:30:47;;;;;;;6.40;5.87;;;29.50;49.40;;;;;;5106481;28;20499;-76
2021/09/10 06:33:15;;;;;;;6.60;6.10;;;29.50;49.40;;;;;;5106792;28;20446;-76
2021/09/10 06:35:45;;;;;;;5.93;5.53;;;29.50;49.30;;;;;;5106989;28;20444;-76
2021/09/10 06:38:12;;;;;;;6.07;5.50;;;29.50;49.40;;;;;;5107133;28;20410;-76
2021/09/10 06:40:40;;;;;;;6.07;5.50;;;29.50;49.40;;;;;;5106219;28;20489;-75
2021/09/10 06:43:08;;;;;;;6.13;5.70;;;29.50;49.40;;;;;;5104913;28;20422;-75
2021/09/10 06:45:36;;;;;;;5.70;5.30;;;29.50;49.40;;;;;;5106121;28;20432;-75
2021/09/10 06:48:05;;;;;;;5.80;5.40;;;29.50;49.40;;;;;;5106441;28;20440;-75
2021/09/10 06:50:33;;;;;;;6.50;5.93;;;29.50;49.60;;;;;;5106045;28;20432;-75
2021/09/10 06:53:02;;;;;;;5.43;4.93;;;29.50;49.50;;;;;;5105738;28;20518;-75
2021/09/10 06:55:30;;;;;;;6.50;6.00;;;29.50;49.40;;;;;;5106149;28;20497;-75
2021/09/10 06:57:58;;;;;;;5.73;5.20;;;29.50;49.60;;;;;;5106127;28;20439;-75
2021/09/10 07:00:26;;;;;;;6.50;6.00;;;29.50;49.50;;;;;;5105531;28;20424;-75
2021/09/10 07:02:54;;;;;;;6.00;5.53;;;29.50;49.50;;;;;;5105956;28;20472;-75
2021/09/10 07:05:23;;;;;;;5.83;5.40;;;29.50;49.60;;;;;;5106133;28;20459;-75
2021/09/10 07:07:52;;;;;;;6.00;5.50;;;29.50;49.60;;;;;;5106118;28;20469;-76
2021/09/10 07:10:23;;;;;;;5.70;5.30;;;29.40;49.60;;;;;;5105434;28;20509;-75
2021/09/10 07:12:51;;;;;;;5.97;5.57;;;29.40;49.70;;;;;;5105523;28;20491;-76
2021/09/10 07:15:19;;;;;;;6.03;5.63;;;29.40;49.70;;;;;;5105801;28;20467;-75
2021/09/10 07:17:47;;;;;;;5.90;5.50;;;29.50;49.60;;;;;;5105766;28;20436;-74
2021/09/10 07:20:15;;;;;;;5.70;5.30;;;29.50;49.60;;;;;;5105745;28;20575;-74
2021/09/10 07:22:43;;;;;;;5.80;5.40;;;29.50;49.70;;;;;;5101153;28;20436;-75
2021/09/10 07:25:11;;;;;;;5.63;5.23;;;29.50;49.70;;;;;;5104987;28;20605;-75
2021/09/10 07:27:40;;;;;;;5.30;5.00;;;29.50;49.60;;;;;;5105165;28;20485;-75
2021/09/10 07:30:09;;;;;;;5.73;5.33;;;29.50;49.60;;;;;;5104956;28;20482;-75
2021/09/10 07:32:37;;;;;;;5.97;5.57;;;29.50;49.60;;;;;;5105282;28;20563;-75
2021/09/10 07:35:07;;;;;;;5.50;5.00;;;29.50;49.50;;;;;;5105464;28;20418;-74
2021/09/10 07:37:37;;;;;;;5.60;5.20;;;29.50;49.60;;;;;;5105326;28;20439;-75
2021/09/10 07:40:07;;;;;;;6.03;5.63;;;29.50;49.50;;;;;;5105497;28;20436;-75
2021/09/10 07:42:35;;;;;;;5.60;5.20;;;29.60;49.50;;;;;;5104672;28;20456;-75
2021/09/10 07:45:05;;;;;;;5.97;5.47;;;29.60;49.40;;;;;;5105246;28;20422;-74
2021/09/10 07:47:33;;;;;;;5.07;4.77;;;29.60;49.40;;;;;;5105251;28;20410;-75
2021/09/10 07:50:00;;;;;;;5.30;4.90;;;29.70;49.30;;;;;;5104965;28;20591;-75
2021/09/10 07:52:28;;;;;;;6.17;5.67;;;29.60;49.30;;;;;;5105041;28;20463;-75
2021/09/10 07:54:56;;;;;;;5.30;4.87;;;29.60;49.30;;;;;;5105560;28;20428;-75
2021/09/10 07:57:24;;;;;;;6.13;5.73;;;29.60;49.30;;;;;;5105010;28;20479;-75
2021/09/10 07:59:56;;;;;;;5.07;4.77;;;29.70;49.30;;;;;;5105090;28;20415;-74
2021/09/10 08:02:26;;;;;;;5.03;4.73;;;29.70;49.20;;;;;;5104499;28;20440;-75
2021/09/10 08:04:55;;;;;;;5.03;4.70;;;29.80;49.20;;;;;;5105043;28;20422;-75
2021/09/10 08:07:23;;;;;;;5.17;4.77;;;29.80;49.00;;;;;;5103850;28;20482;-75
2021/09/10 08:09:58;;;;;;;5.00;4.60;;;29.80;49.00;;;;;;5103947;28;20410;-75
2021/09/10 08:12:27;;;;;;;5.00;4.63;;;29.80;48.90;;;;;;5104563;28;20468;-75
2021/09/10 08:14:55;;;;;;;5.43;5.03;;;29.80;49.00;;;;;;5105163;28;20440;-75
2021/09/10 08:17:24;;;;;;;5.03;4.73;;;29.80;48.80;;;;;;5104745;28;20428;-75
2021/09/10 08:19:52;;;;;;;5.13;4.70;;;29.90;48.80;;;;;;5104639;28;20535;-75
2021/09/10 08:22:20;;;;;;;5.57;5.17;;;29.90;48.80;;;;;;5104043;28;20451;-75
2021/09/10 08:24:55;;;;;;;5.63;5.23;;;29.90;48.80;;;;;;5104762;28;20507;-75
2021/09/10 08:27:23;;;;;;;4.87;4.53;;;29.90;48.80;;;;;;5104573;28;20488;-75
2021/09/10 08:29:52;;;;;;;5.20;4.90;;;29.90;48.70;;;;;;5104633;28;20446;-75
2021/09/10 08:32:20;;;;;;;4.47;4.23;;;30.00;48.70;;;;;;5104450;28;20449;-75
2021/09/10 08:34:49;;;;;;;5.07;4.67;;;30.00;48.70;;;;;;5104733;28;20547;-74
2021/09/10 08:37:17;;;;;;;4.87;4.17;;;30.00;48.60;;;;;;5104711;28;20432;-74
2021/09/10 08:39:45;;;;;;;5.33;4.93;;;30.00;48.50;;;;;;5104573;28;20443;-74
2021/09/10 08:42:13;;;;;;;5.30;4.90;;;30.10;48.50;;;;;;5104431;28;20428;-74
2021/09/10 08:44:42;;;;;;;4.30;4.10;;;30.10;48.40;;;;;;5104585;28;20399;-74
2021/09/10 08:47:10;;;;;;;4.53;4.33;;;30.20;48.40;;;;;;5104441;28;20424;-74
2021/09/10 08:49:39;;;;;;;4.87;4.57;;;30.20;48.40;;;;;;5104133;28;20442;-74
2021/09/10 08:52:08;;;;;;;4.97;4.57;;;30.20;48.30;;;;;;5104272;28;20471;-74
2021/09/10 08:54:36;;;;;;;4.60;4.20;;;30.20;48.30;;;;;;5104513;28;20444;-74
2021/09/10 08:57:04;;;;;;;5.50;4.53;;;30.30;48.20;;;;;;5104353;28;20544;-74
2021/09/10 08:59:32;;;;;;;4.33;4.03;;;30.40;48.20;;;;;;5103688;28;20482;-74
2021/09/10 09:02:00;;;;;;;5.27;4.77;;;30.40;48.10;;;;;;5099267;28;20455;-74
2021/09/10 09:04:30;;;;;;;4.77;4.47;;;30.40;48.10;;;;;;5104383;28;20459;-74
2021/09/10 09:07:00;;;;;;;4.23;4.03;;;30.40;47.90;;;;;;5107733;28;20496;-74
2021/09/10 09:09:36;;;;;;;4.93;4.63;;;30.40;47.90;;;;;;5107962;28;20493;-74
2021/09/10 09:12:15;;;;;;;4.63;4.43;;;30.40;47.90;;;;;;5107833;28;20438;-74
2021/09/10 09:14:44;;;;;;;4.07;3.80;;;30.40;47.90;;;;;;5108017;28;20478;-74
2021/09/10 09:17:23;;;;;;;4.60;4.30;;;30.40;47.90;;;;;;5108070;28;20444;-74
2021/09/10 09:20:17;;;;;;;5.00;4.50;;;30.40;48.00;;;;;;5107951;28;20543;-74
2021/09/10 09:22:52;;;;;;;5.07;4.77;;;30.40;47.90;;;;;;5107814;28;20470;-74
2021/09/10 09:25:23;;;;;;;4.50;4.30;;;30.40;47.90;;;;;;5108184;28;20520;-74
2021/09/10 09:27:51;;;;;;;4.47;4.27;;;30.40;48.00;;;;;;5108093;28;20519;-74
2021/09/10 09:30:38;;;;;;;4.10;3.90;;;30.40;48.00;;;;;;5107967;28;20555;-74
2021/09/10 09:33:06;;;;;;;4.37;4.17;;;30.40;48.00;;;;;;5107026;28;20551;-74
2021/09/10 09:35:34;;;;;;;4.40;4.10;;;30.40;48.00;;;;;;5107731;28;20503;-74
2021/09/10 09:38:11;;;;;;;4.50;4.23;;;30.40;47.90;;;;;;5107730;28;20442;-74
2021/09/10 09:40:40;;;;;;;4.50;4.20;;;30.40;47.90;;;;;;5107831;28;20526;-74
2021/09/10 09:43:15;;;;;;;4.60;4.40;;;30.50;48.00;;;;;;5107678;28;20428;-74
2021/09/10 09:45:45;;;;;;;4.13;3.93;;;30.60;47.90;;;;;;5107282;28;20463;-74
2021/09/10 09:48:13;;;;;;;4.27;3.90;;;30.60;47.80;;;;;;5107554;28;20471;-74
2021/09/10 09:50:42;;;;;;;4.40;4.20;;;30.70;47.60;;;;;;5107467;28;20414;-74
2021/09/10 09:53:09;;;;;;;5.20;4.03;;;30.80;47.50;;;;;;5107387;28;20558;-74
2021/09/10 09:55:37;;;;;;;4.73;4.40;;;30.80;47.40;;;;;;5107696;28;20452;-74
2021/09/10 09:58:07;;;;;;;4.57;4.17;;;30.80;47.30;;;;;;5106944;28;20407;-74
2021/09/10 10:00:35;;;;;;;4.20;3.90;;;30.90;47.30;;;;;;5107224;28;20515;-74
2021/09/10 10:03:04;;;;;;;4.60;4.30;;;30.90;47.20;;;;;;5107083;28;20450;-74
2021/09/10 10:05:32;;;;;;;4.10;3.90;;;30.90;47.40;;;;;;5107215;28;20451;-74
2021/09/10 10:08:03;;;;;;;3.60;3.40;;;31.10;47.20;;;;;;5104234;28;20539;-74
2021/09/10 10:10:35;;;;;;;4.00;3.80;;;31.10;47.20;;;;;;5106061;28;20436;-74
2021/09/10 10:13:05;;;;;;;4.30;4.00;;;31.30;47.10;;;;;;5106460;28;20449;-74
2021/09/10 10:15:34;;;;;;;4.07;3.77;;;31.40;46.90;;;;;;5106384;28;20470;-74
2021/09/10 10:18:02;;;;;;;3.40;3.30;;;31.50;46.60;;;;;;5105611;28;20435;-74
2021/09/10 10:20:49;;;;;;;3.23;3.07;;;31.70;46.60;;;;;;5106010;28;20471;-74
2021/09/10 10:23:58;;;;;;;3.30;3.20;;;31.80;46.50;;;;;;5105657;28;20502;-74
2021/09/10 10:26:34;;;;;;;3.53;3.33;;;31.90;46.40;;;;;;5103566;28;20519;-74
2021/09/10 10:29:13;;;;;;;3.57;3.37;;;32.00;46.10;;;;;;5106840;28;20450;-74
2021/09/10 10:31:59;;;;;;;3.50;3.33;;;32.20;46.00;;;;;;5106517;28;20442;-75
2021/09/10 10:34:27;;;;;;;3.47;3.30;;;32.30;45.50;;;;;;5104458;28;20536;-75
2021/09/10 10:36:55;;;;;;;3.53;3.33;;;32.40;45.50;;;;;;5105641;28;20435;-74
2021/09/10 10:39:29;;;;;;;3.57;3.27;;;32.60;45.50;;;;;;5106417;28;20436;-74
2021/09/10 10:41:58;;;;;;;3.23;3.00;;;32.60;45.40;;;;;;5106510;28;20498;-75
2021/09/10 10:44:48;;;;;;;4.50;3.07;;;32.70;45.40;;;;;;5105742;28;20485;-74
2021/09/10 10:47:18;;;;;;;3.60;3.30;;;32.90;45.40;;;;;;5095234;28;20466;-75
2021/09/10 10:49:47;;;;;;;3.53;3.33;;;33.00;45.00;;;;;;5106959;28;20455;-75
2021/09/10 10:52:38;;;;;;;3.50;3.13;;;33.20;44.90;;;;;;5106536;28;20477;-75
2021/09/10 10:55:23;;;;;;;3.67;3.47;;;33.30;44.80;;;;;;5106761;28;20500;-75
2021/09/10 10:57:52;;;;;;;3.93;3.50;;;33.40;44.60;;;;;;5105237;28;20440;-74
2021/09/10 11:00:45;;;;;;;3.10;3.00;;;33.60;44.40;;;;;;5105802;28;20527;-75
2021/09/10 11:03:35;;;;;;;3.80;3.60;;;33.70;44.10;;;;;;5101965;28;20432;-74
2021/09/10 11:06:29;;;;;;;3.60;3.33;;;33.80;43.90;;;;;;5103228;28;20490;-74
2021/09/10 11:08:57;;;;;;;3.50;3.20;;;33.90;43.60;;;;;;5104600;28;20484;-74
2021/09/10 11:11:28;;;;;;;3.97;3.67;;;33.90;43.90;;;;;;5105428;28;20465;-74
2021/09/10 11:13:56;;;;;;;3.60;3.50;;;33.70;43.80;;;;;;5105523;28;20491;-75
2021/09/10 11:16:28;;;;;;;3.90;3.67;;;33.80;44.50;;;;;;5105795;28;20469;-74
2021/09/10 11:18:57;;;;;;;3.90;3.60;;;33.80;44.10;;;;;;5103555;28;20428;-75
2021/09/10 11:21:29;;;;;;;4.20;4.00;;;33.60;44.30;;;;;;5105134;28;20502;-75
2021/09/10 11:24:07;;;;;;;4.00;3.70;;;33.70;44.90;;;;;;5105599;28;20432;-75
2021/09/10 11:26:36;;;;;;;3.80;3.50;;;34.00;43.90;;;;;;5105712;28;20474;-74
2021/09/10 11:29:13;;;;;;;4.33;4.03;;;33.90;44.10;;;;;;5102548;28;20438;-74
2021/09/10 11:31:43;;;;;;;4.10;3.90;;;35.00;43.80;;;;;;5105021;28;20534;-75
2021/09/10 11:34:31;;;;;;;3.70;3.50;;;35.30;42.20;;;;;;5105627;28;20460;-75
2021/09/10 11:37:01;;;;;;;4.40;4.10;;;35.30;42.20;;;;;;5105475;28;20497;-74
2021/09/10 11:39:29;;;;;;;4.23;3.83;;;35.80;41.80;;;;;;5106093;28;20432;-74
2021/09/10 11:41:56;;;;;;;3.60;3.40;;;36.20;41.10;;;;;;5105298;28;20447;-75
2021/09/10 11:44:24;;;;;;;3.80;3.60;;;36.20;40.00;;;;;;5105376;28;20501;-75
2021/09/10 11:46:52;;;;;;;4.53;4.20;;;35.60;40.80;;;;;;5105531;28;20448;-75
2021/09/10 11:49:22;;;;;;;4.43;4.13;;;35.10;41.40;;;;;;5080333;28;20456;-74
2021/09/10 11:51:51;;;;;;;4.03;3.93;;;34.60;42.40;;;;;;5085158;28;20524;-74
2021/09/10 11:54:20;;;;;;;4.70;4.20;;;34.60;42.90;;;;;;5084733;28;20496;-75
2021/09/10 11:56:48;;;;;;;4.57;4.17;;;34.50;43.00;;;;;;5099969;28;20456;-74
2021/09/10 11:59:21;;;;;;;4.43;4.23;;;34.40;43.40;;;;;;5101917;28;20522;-74
2021/09/10 12:01:49;;;;;;;4.87;4.47;;;34.30;43.40;;;;;;5102578;28;20486;-74
2021/09/10 12:04:32;;;;;;;5.10;4.67;;;34.30;43.80;;;;;;5104648;28;20447;-74
2021/09/10 12:07:01;;;;;;;4.70;4.50;;;34.30;43.90;;;;;;5105260;28;20507;-74
2021/09/10 12:09:29;;;;;;;4.33;4.13;;;34.70;43.60;;;;;;5105261;28;20543;-74
2021/09/10 12:12:08;;;;;;;4.80;4.40;;;35.00;43.10;;;;;;5104576;28;20471;-75
2021/09/10 12:14:38;;;;;;;4.83;4.43;;;35.40;42.30;;;;;;5105261;28;20467;-75
2021/09/10 12:17:08;;;;;;;4.60;4.40;;;35.70;41.60;;;;;;5105146;28;20436;-75
2021/09/10 12:19:48;;;;;;;4.93;4.60;;;36.10;41.00;;;;;;5105035;28;20641;-75
2021/09/10 12:22:30;;;;;;;4.60;4.30;;;36.40;40.50;;;;;;5105478;28;20546;-75
2021/09/10 12:25:24;;;;;;;4.80;4.60;;;36.30;40.20;;;;;;5105118;28;20443;-74
2021/09/10 12:27:53;;;;;;;4.30;4.00;;;36.00;40.50;;;;;;5102453;28;20428;-74
2021/09/10 12:30:22;;;;;;;4.70;4.50;;;35.60;41.20;;;;;;5104124;28;20447;-75
2021/09/10 12:32:50;;;;;;;4.63;4.33;;;35.80;41.60;;;;;;5103941;28;20522;-74
2021/09/10 12:35:19;;;;;;;4.50;4.20;;;35.50;41.40;;;;;;5104500;28;20472;-74
2021/09/10 12:37:55;;;;;;;4.83;4.47;;;35.70;41.10;;;;;;5104384;28;20485;-74
2021/09/10 12:40:24;;;;;;;4.53;4.30;;;36.10;41.70;;;;;;5105428;28;20462;-75
2021/09/10 12:42:52;;;;;;;4.37;4.03;;;37.10;40.00;;;;;;5108959;28;20424;-75
2021/09/10 12:45:20;;;;;;;4.40;4.10;;;38.30;39.10;;;;;;5109191;28;20443;-75
2021/09/10 12:47:48;;;;;;;3.87;3.70;;;38.40;36.50;;;;;;5108454;28;20522;-75
2021/09/10 12:50:16;;;;;;;4.20;4.00;;;39.00;36.70;;;;;;5105400;28;20435;-75
2021/09/10 12:52:46;;;;;;;4.60;4.40;;;39.30;36.20;;;;;;5091875;28;20445;-75
2021/09/10 12:55:14;;;;;;;4.10;4.00;;;39.60;35.60;;;;;;5097630;28;20531;-75
2021/09/10 12:57:44;;;;;;;4.17;3.87;;;39.80;34.40;;;;;;5100601;28;20451;-75
2021/09/10 13:00:13;;;;;;;3.80;3.70;;;38.90;35.70;;;;;;5087855;28;20487;-75